Time;durP1;ratioP1;P1;durP2;ratioP2;P2;SDS_P1;SDS_P2;PMS_P1;PMS_P2;Temp;Humidity;BMP_temperature;BMP_pressure;BME280_temperature;BME280_humidity;BME280_pressure;Samples;Min_cycle;Max_cycle;Signal;HPM_P1;HPM_P2
2021/11/21 00:00:25;;;;;;;3.28;2.03;;;21.80;63.60;;;;;;6214079;23;20458;-73
2021/11/21 00:02:51;;;;;;;1.50;1.40;;;21.80;63.50;;;;;;6214090;23;20004;-73
2021/11/21 00:05:17;;;;;;;2.45;1.70;;;21.80;63.50;;;;;;6214062;23;20375;-73
2021/11/21 00:07:43;;;;;;;3.47;1.80;;;21.80;63.50;;;;;;6187161;23;19997;-73
2021/11/21 00:10:08;;;;;;;2.03;1.83;;;21.80;63.50;;;;;;6214592;23;20000;-73
2021/11/21 00:12:34;;;;;;;2.42;1.83;;;21.80;63.50;;;;;;6189469;23;20001;-73
2021/11/21 00:14:59;;;;;;;1.92;1.63;;;21.80;63.60;;;;;;6189634;23;20035;-73
2021/11/21 00:17:25;;;;;;;9.00;2.42;;;21.70;63.50;;;;;;6215958;23;20001;-73
2021/11/21 00:19:51;;;;;;;7.22;1.85;;;21.70;63.60;;;;;;6216014;23;20032;-73
2021/11/21 00:22:16;;;;;;;2.42;1.80;;;21.70;63.60;;;;;;6215481;23;20011;-73
2021/11/21 00:24:43;;;;;;;1.88;1.65;;;21.70;63.60;;;;;;6189184;23;20065;-72
2021/11/21 00:27:09;;;;;;;2.40;1.65;;;21.70;63.60;;;;;;6189589;23;20012;-71
2021/11/21 00:29:35;;;;;;;2.03;1.70;;;21.70;63.70;;;;;;6189434;23;20023;-71
2021/11/21 00:32:01;;;;;;;3.47;1.73;;;21.70;63.70;;;;;;6215930;23;20348;-71
2021/11/21 00:34:27;;;;;;;2.60;1.90;;;21.70;63.70;;;;;;6164165;23;20004;-71
2021/11/21 00:36:52;;;;;;;4.15;1.95;;;21.70;63.70;;;;;;6189142;23;20076;-71
2021/11/21 00:39:18;;;;;;;3.30;1.85;;;21.60;63.70;;;;;;6189671;23;20039;-71
2021/11/21 00:41:43;;;;;;;2.75;1.90;;;21.60;63.70;;;;;;6188832;23;20009;-73
2021/11/21 00:44:09;;;;;;;2.00;1.50;;;21.60;63.80;;;;;;6189519;23;20427;-72
2021/11/21 00:46:35;;;;;;;2.53;1.83;;;21.60;63.80;;;;;;6189195;23;20007;-73
2021/11/21 00:49:02;;;;;;;2.58;1.55;;;21.60;63.80;;;;;;6188805;23;20007;-73
2021/11/21 00:51:28;;;;;;;2.33;1.75;;;21.60;63.80;;;;;;6216022;23;20000;-73
2021/11/21 00:54:03;;;;;;;2.42;1.70;;;21.60;63.90;;;;;;6164327;23;20008;-72
2021/11/21 00:56:29;;;;;;;1.50;1.40;;;21.60;63.90;;;;;;6189073;23;20008;-73
2021/11/21 00:58:55;;;;;;;2.85;1.70;;;21.60;63.90;;;;;;6189042;23;20005;-73
2021/11/21 01:01:20;;;;;;;3.58;1.50;;;21.60;64.00;;;;;;6188921;23;20015;-72
2021/11/21 01:03:46;;;;;;;3.85;1.75;;;21.60;64.00;;;;;;6188780;23;20463;-72
2021/11/21 01:06:12;;;;;;;2.88;1.88;;;21.60;64.00;;;;;;6188845;23;19996;-72
2021/11/21 01:08:37;;;;;;;1.90;1.77;;;21.50;64.00;;;;;;6215708;23;19997;-72
2021/11/21 01:11:04;;;;;;;2.72;1.95;;;21.50;64.00;;;;;;6215584;23;20005;-72
2021/11/21 01:13:30;;;;;;;2.05;1.80;;;21.50;64.00;;;;;;6164316;23;20502;-73
2021/11/21 01:15:55;;;;;;;4.82;1.80;;;21.50;64.00;;;;;;6214997;23;20000;-73
2021/11/21 01:18:22;;;;;;;3.83;1.90;;;21.60;64.10;;;;;;6214977;23;20008;-73
2021/11/21 01:20:47;;;;;;;4.55;1.65;;;21.50;64.00;;;;;;6215083;23;20001;-73
2021/11/21 01:23:14;;;;;;;2.95;1.70;;;21.50;64.00;;;;;;6189051;23;20004;-73
2021/11/21 01:25:41;;;;;;;2.92;2.05;;;21.50;64.10;;;;;;6188880;23;20000;-73
2021/11/21 01:28:07;;;;;;;2.97;1.75;;;21.50;64.10;;;;;;6164321;23;20000;-73
2021/11/21 01:30:32;;;;;;;2.10;1.67;;;21.50;64.20;;;;;;6188834;23;20000;-73
2021/11/21 01:32:59;;;;;;;1.70;1.60;;;21.50;64.20;;;;;;6188178;23;20068;-73
2021/11/21 01:35:24;;;;;;;3.17;1.85;;;21.50;64.20;;;;;;6215900;23;20119;-73
2021/11/21 01:37:50;;;;;;;1.77;1.67;;;21.50;64.20;;;;;;6188636;23;20028;-73
2021/11/21 01:40:16;;;;;;;1.85;1.52;;;21.50;64.20;;;;;;6215342;23;20007;-73
2021/11/21 01:42:42;;;;;;;2.13;1.80;;;21.50;64.30;;;;;;6188515;23;20087;-73
2021/11/21 01:45:08;;;;;;;2.17;1.85;;;21.50;64.30;;;;;;6215168;23;20028;-73
2021/11/21 01:47:41;;;;;;;2.95;1.55;;;21.50;64.30;;;;;;6188537;23;20344;-73
2021/11/21 01:50:08;;;;;;;2.40;1.67;;;21.50;64.30;;;;;;6215130;23;20164;-73
2021/11/21 01:52:34;;;;;;;3.67;1.75;;;21.50;64.30;;;;;;6215336;23;20325;-73
2021/11/21 01:54:59;;;;;;;3.55;1.80;;;21.40;64.30;;;;;;6188652;23;20008;-73
2021/11/21 01:57:25;;;;;;;2.30;1.63;;;21.50;64.40;;;;;;6188859;23;20139;-73
2021/11/21 01:59:51;;;;;;;2.13;1.60;;;21.40;64.40;;;;;;6163904;23;20015;-73
2021/11/21 02:02:17;;;;;;;2.53;1.70;;;21.40;64.40;;;;;;6214579;23;20085;-73
2021/11/21 02:04:42;;;;;;;2.50;1.77;;;21.40;64.40;;;;;;6215444;23;19996;-73
2021/11/21 02:07:08;;;;;;;1.60;1.50;;;21.40;64.40;;;;;;6214657;23;19996;-73
2021/11/21 02:09:34;;;;;;;3.65;1.40;;;21.40;64.50;;;;;;6215558;23;20353;-73
2021/11/21 02:11:59;;;;;;;1.95;1.45;;;21.40;64.50;;;;;;6163575;23;20321;-72
2021/11/21 02:14:25;;;;;;;2.60;1.50;;;21.40;64.50;;;;;;6214934;23;20001;-73
2021/11/21 02:16:50;;;;;;;2.42;1.58;;;21.40;64.50;;;;;;6214453;23;20001;-73
2021/11/21 02:19:17;;;;;;;2.65;1.45;;;21.40;64.50;;;;;;6214652;23;20007;-73
2021/11/21 02:21:42;;;;;;;2.08;1.52;;;21.40;64.60;;;;;;6214742;23;20008;-73
2021/11/21 02:24:08;;;;;;;2.85;1.60;;;21.40;64.60;;;;;;6214852;23;20024;-73
2021/11/21 02:26:33;;;;;;;1.88;1.50;;;21.40;64.60;;;;;;6214248;23;20059;-73
2021/11/21 02:28:59;;;;;;;1.80;1.40;;;21.40;64.60;;;;;;6214849;23;19997;-73
2021/11/21 02:31:25;;;;;;;1.77;1.60;;;21.40;64.60;;;;;;6214469;23;20011;-73
2021/11/21 02:33:51;;;;;;;3.00;1.38;;;21.40;65.70;;;;;;6188335;23;20005;-72
2021/11/21 02:36:17;;;;;;;2.10;1.40;;;21.40;64.70;;;;;;6188394;23;20336;-72
2021/11/21 02:38:43;;;;;;;2.67;1.60;;;21.40;64.70;;;;;;6188295;23;20005;-72
2021/11/21 02:41:09;;;;;;;4.95;1.88;;;21.40;64.70;;;;;;6214197;23;20059;-73
2021/11/21 02:43:35;;;;;;;3.13;1.63;;;21.30;64.70;;;;;;6214545;23;20416;-73
2021/11/21 02:46:00;;;;;;;2.00;1.40;;;21.40;64.80;;;;;;6187636;23;20011;-73
2021/11/21 02:48:28;;;;;;;2.40;1.67;;;21.40;64.80;;;;;;6188472;23;20008;-73
2021/11/21 02:50:54;;;;;;;2.17;1.60;;;21.40;64.80;;;;;;6188099;23;20000;-74
2021/11/21 02:53:21;;;;;;;2.53;1.23;;;21.40;64.80;;;;;;6188462;23;20011;-73
2021/11/21 02:55:47;;;;;;;2.83;1.50;;;21.40;64.80;;;;;;6188171;23;20024;-73
2021/11/21 02:58:13;;;;;;;1.48;1.35;;;21.40;64.80;;;;;;6188005;23;20344;-73
2021/11/21 03:00:39;;;;;;;1.90;1.63;;;21.40;65.90;;;;;;6162792;23;20035;-73
2021/11/21 03:03:05;;;;;;;2.28;1.52;;;21.40;64.90;;;;;;6187992;23;19997;-73
2021/11/21 03:05:34;;;;;;;1.70;1.55;;;21.40;64.90;;;;;;6163413;23;20008;-73
2021/11/21 03:08:00;;;;;;;3.08;1.40;;;21.40;64.90;;;;;;6188025;23;20000;-73
2021/11/21 03:10:27;;;;;;;2.38;1.50;;;21.40;65.00;;;;;;6163286;23;20007;-73
2021/11/21 03:12:54;;;;;;;2.42;1.70;;;21.30;64.90;;;;;;6163983;23;20012;-73
2021/11/21 03:15:21;;;;;;;1.75;1.50;;;21.30;65.00;;;;;;6187068;23;20367;-73
2021/11/21 03:17:46;;;;;;;1.90;1.30;;;21.30;65.00;;;;;;6163512;23;20004;-74
2021/11/21 03:20:18;;;;;;;1.40;1.30;;;21.30;65.00;;;;;;6187963;23;20328;-73
2021/11/21 03:22:44;;;;;;;6.53;1.50;;;21.30;65.00;;;;;;6188092;23;20008;-73
2021/11/21 03:25:10;;;;;;;1.30;1.10;;;21.30;65.00;;;;;;6162871;23;20004;-73
2021/11/21 03:27:36;;;;;;;1.40;1.30;;;21.30;65.00;;;;;;6187418;23;20013;-73
2021/11/21 03:30:02;;;;;;;2.20;1.50;;;21.30;65.10;;;;;;6187429;23;19997;-73
2021/11/21 03:32:28;;;;;;;2.70;1.27;;;21.30;65.10;;;;;;6214114;23;20078;-73
2021/11/21 03:34:55;;;;;;;1.92;1.52;;;21.30;65.10;;;;;;6214440;23;20032;-73
2021/11/21 03:37:21;;;;;;;2.60;1.50;;;21.30;65.10;;;;;;6187838;23;20004;-73
2021/11/21 03:39:46;;;;;;;2.08;1.80;;;21.30;65.20;;;;;;6188313;23;20075;-73
2021/11/21 03:42:12;;;;;;;1.45;1.35;;;21.30;65.20;;;;;;6187882;23;20019;-73
2021/11/21 03:44:37;;;;;;;2.25;1.48;;;21.30;65.20;;;;;;6187659;23;19996;-73
2021/11/21 03:47:03;;;;;;;3.78;1.30;;;21.30;65.20;;;;;;6214635;23;20007;-73
2021/11/21 03:49:30;;;;;;;1.50;1.38;;;21.30;65.20;;;;;;6214380;23;20064;-73
2021/11/21 03:51:56;;;;;;;3.13;1.27;;;21.30;65.30;;;;;;6163431;23;20071;-73
2021/11/21 03:54:21;;;;;;;1.40;1.30;;;21.30;65.30;;;;;;6187881;23;20002;-73
2021/11/21 03:56:47;;;;;;;1.80;1.50;;;21.30;65.30;;;;;;6188080;23;20013;-73
2021/11/21 03:59:12;;;;;;;1.55;1.23;;;21.30;65.40;;;;;;6187532;23;20348;-73
2021/11/21 04:01:38;;;;;;;4.57;1.70;;;21.30;65.30;;;;;;6214233;23;20000;-73
2021/11/21 04:04:07;;;;;;;2.17;1.40;;;21.30;65.30;;;;;;6214705;23;19997;-73
2021/11/21 04:06:33;;;;;;;1.88;1.20;;;21.30;65.40;;;;;;6214240;23;20451;-73
2021/11/21 04:08:59;;;;;;;1.55;1.30;;;21.30;65.40;;;;;;6188085;23;20001;-72
2021/11/21 04:11:24;;;;;;;1.40;1.20;;;21.30;65.40;;;;;;6187927;23;20028;-73
2021/11/21 04:13:50;;;;;;;1.33;1.23;;;21.30;65.50;;;;;;6187604;23;20008;-73
2021/11/21 04:16:16;;;;;;;1.55;1.35;;;21.30;65.50;;;;;;6187826;23;20001;-73
2021/11/21 04:18:42;;;;;;;1.85;1.23;;;21.30;65.50;;;;;;6187984;23;20028;-72
2021/11/21 04:21:08;;;;;;;1.40;1.27;;;21.40;65.50;;;;;;6214133;23;20009;-73
2021/11/21 04:23:34;;;;;;;1.48;1.23;;;21.40;65.60;;;;;;6163087;23;20001;-73
2021/11/21 04:26:00;;;;;;;2.58;1.50;;;21.40;65.50;;;;;;6163088;23;20036;-73
2021/11/21 04:28:26;;;;;;;1.75;1.40;;;21.30;65.50;;;;;;6213919;23;20340;-73
2021/11/21 04:30:53;;;;;;;1.27;1.10;;;21.30;65.60;;;;;;6214403;23;20451;-72
2021/11/21 04:33:22;;;;;;;2.45;1.10;;;21.30;65.60;;;;;;6188043;23;20040;-72
2021/11/21 04:35:48;;;;;;;1.33;1.20;;;21.30;65.60;;;;;;6163653;23;20444;-72
2021/11/21 04:38:14;;;;;;;1.90;1.20;;;21.30;65.60;;;;;;6187903;23;19997;-72
2021/11/21 04:40:39;;;;;;;1.33;1.13;;;21.30;65.60;;;;;;6187890;23;20075;-73
2021/11/21 04:43:05;;;;;;;1.83;1.50;;;21.30;65.60;;;;;;6213905;23;20443;-73
2021/11/21 04:45:31;;;;;;;1.25;1.17;;;21.30;65.60;;;;;;6214172;23;20001;-73
2021/11/21 04:47:56;;;;;;;2.05;1.40;;;21.30;65.60;;;;;;6214366;23;20440;-72
2021/11/21 04:50:22;;;;;;;2.85;1.10;;;21.30;65.60;;;;;;6187642;23;20298;-72
2021/11/21 04:52:47;;;;;;;2.38;1.40;;;21.30;65.60;;;;;;6187660;23;20009;-72
2021/11/21 04:55:13;;;;;;;1.15;1.05;;;21.40;65.80;;;;;;6214191;23;20059;-72
2021/11/21 04:57:40;;;;;;;1.65;1.17;;;21.30;65.70;;;;;;6163686;23;20004;-72
2021/11/21 05:00:08;;;;;;;1.50;1.10;;;21.30;65.70;;;;;;6216239;23;20001;-72
2021/11/21 05:02:39;;;;;;;1.58;1.10;;;21.30;65.70;;;;;;6215757;23;20130;-72
2021/11/21 05:05:05;;;;;;;1.70;1.10;;;21.30;65.70;;;;;;6216060;23;20491;-72
2021/11/21 05:07:30;;;;;;;1.35;1.10;;;21.30;65.80;;;;;;6164674;23;20032;-72
2021/11/21 05:09:56;;;;;;;1.50;1.20;;;21.30;65.80;;;;;;6215740;23;19997;-72
2021/11/21 05:12:23;;;;;;;1.30;0.95;;;21.30;65.90;;;;;;6189290;23;20160;-73
2021/11/21 05:14:49;;;;;;;2.35;1.35;;;21.30;65.80;;;;;;6215921;23;20008;-73
2021/11/21 05:17:15;;;;;;;1.35;1.25;;;21.30;65.90;;;;;;6189542;23;20039;-73
2021/11/21 05:19:40;;;;;;;1.10;1.00;;;21.30;65.90;;;;;;6215600;23;20486;-73
2021/11/21 05:22:06;;;;;;;1.33;1.23;;;21.30;65.90;;;;;;6215863;23;20001;-73
2021/11/21 05:24:31;;;;;;;1.30;1.20;;;21.30;65.90;;;;;;6188785;23;20008;-72
2021/11/21 05:26:57;;;;;;;1.38;1.10;;;21.30;65.90;;;;;;6215604;23;20352;-72
2021/11/21 05:29:23;;;;;;;1.58;1.38;;;21.30;65.90;;;;;;6215798;23;20001;-72
2021/11/21 05:31:49;;;;;;;3.33;1.52;;;21.30;65.90;;;;;;6215583;23;20000;-73
2021/11/21 05:34:15;;;;;;;1.90;1.27;;;21.30;65.90;;;;;;6189487;23;20007;-73
2021/11/21 05:36:41;;;;;;;1.83;1.30;;;21.30;65.90;;;;;;6189216;23;20011;-73
2021/11/21 05:39:09;;;;;;;1.20;1.10;;;21.30;65.90;;;;;;6188871;23;20007;-73
2021/11/21 05:41:34;;;;;;;1.10;1.00;;;21.30;66.00;;;;;;6215443;23;20032;-73
2021/11/21 05:44:00;;;;;;;1.73;1.27;;;21.30;66.00;;;;;;6215619;23;19996;-73
2021/11/21 05:46:25;;;;;;;1.60;1.15;;;21.30;66.00;;;;;;6189100;23;20055;-73
2021/11/21 05:48:53;;;;;;;4.03;1.60;;;21.30;66.00;;;;;;6215549;23;20336;-73
2021/11/21 05:51:19;;;;;;;1.10;1.00;;;21.30;66.00;;;;;;6189587;23;20005;-73
2021/11/21 05:53:45;;;;;;;1.25;0.90;;;21.30;66.00;;;;;;6188491;23;20005;-73
2021/11/21 05:56:10;;;;;;;3.00;1.00;;;21.20;66.00;;;;;;6189047;23;20000;-73
2021/11/21 05:58:36;;;;;;;1.38;1.00;;;21.30;66.00;;;;;;6215347;23;20007;-73
2021/11/21 06:01:02;;;;;;;1.55;1.35;;;21.20;66.10;;;;;;6215379;23;20004;-73
2021/11/21 06:03:27;;;;;;;1.13;0.90;;;21.20;66.10;;;;;;6164016;23;20348;-73
2021/11/21 06:05:53;;;;;;;2.13;1.08;;;21.30;66.10;;;;;;6164132;23;20379;-73
2021/11/21 06:08:19;;;;;;;1.60;1.20;;;21.20;66.10;;;;;;6214380;23;20008;-73
2021/11/21 06:10:45;;;;;;;2.22;0.98;;;21.20;66.10;;;;;;6215335;23;20059;-73
2021/11/21 06:13:11;;;;;;;0.82;0.82;;;21.20;66.10;;;;;;6189031;23;20039;-73
2021/11/21 06:15:36;;;;;;;1.48;1.10;;;21.20;66.20;;;;;;6215061;23;20071;-73
2021/11/21 06:18:02;;;;;;;1.60;1.02;;;21.20;66.10;;;;;;6188958;23;20000;-73
2021/11/21 06:20:28;;;;;;;1.60;1.02;;;21.20;66.20;;;;;;6188727;23;20348;-73
2021/11/21 06:22:54;;;;;;;1.60;1.02;;;21.20;66.20;;;;;;6214632;23;20012;-73
2021/11/21 06:25:19;;;;;;;1.30;1.20;;;21.20;66.20;;;;;;6188993;23;20005;-73
2021/11/21 06:27:45;;;;;;;1.45;0.90;;;21.20;66.20;;;;;;6188333;23;20013;-73
2021/11/21 06:30:11;;;;;;;1.23;1.08;;;21.20;66.20;;;;;;6188808;23;20043;-73
2021/11/21 06:32:36;;;;;;;1.67;1.02;;;21.20;66.20;;;;;;6188607;23;20393;-73
2021/11/21 06:35:02;;;;;;;0.95;0.90;;;21.20;66.20;;;;;;6164009;23;20547;-73
2021/11/21 06:37:28;;;;;;;1.00;0.85;;;21.20;66.30;;;;;;6188227;23;20005;-73
2021/11/21 06:39:53;;;;;;;2.22;1.00;;;21.20;66.20;;;;;;6188456;23;20062;-73
2021/11/21 06:42:19;;;;;;;1.67;1.10;;;21.20;66.20;;;;;;6214989;23;20032;-73
2021/11/21 06:44:44;;;;;;;1.40;1.10;;;21.20;66.20;;;;;;6214800;23;20003;-73
2021/11/21 06:47:10;;;;;;;2.38;1.08;;;21.20;66.30;;;;;;6163849;23;20511;-73
2021/11/21 06:49:36;;;;;;;1.67;1.15;;;21.20;66.30;;;;;;6214815;23;20000;-73
2021/11/21 06:52:02;;;;;;;1.48;1.00;;;21.20;66.30;;;;;;6188170;23;20498;-73
2021/11/21 06:54:27;;;;;;;1.10;0.85;;;21.20;66.30;;;;;;6188230;23;20004;-73
2021/11/21 06:56:53;;;;;;;1.15;1.05;;;21.20;66.40;;;;;;6214837;23;20001;-73
2021/11/21 06:59:18;;;;;;;1.60;1.02;;;21.20;66.40;;;;;;6162588;23;20329;-73
2021/11/21 07:01:44;;;;;;;4.53;1.10;;;21.20;66.40;;;;;;6213015;23;20338;-73
2021/11/21 07:04:10;;;;;;;1.67;1.10;;;21.20;66.40;;;;;;6213905;23;20004;-73
2021/11/21 07:06:37;;;;;;;3.03;1.20;;;21.20;67.50;;;;;;6162281;23;19997;-72
2021/11/21 07:09:05;;;;;;;1.27;1.02;;;21.20;66.40;;;;;;6187416;23;19996;-73
2021/11/21 07:11:31;;;;;;;3.10;0.85;;;21.10;66.30;;;;;;6214294;23;20011;-73
2021/11/21 07:13:57;;;;;;;1.40;0.80;;;21.20;66.40;;;;;;6188226;23;20071;-73
2021/11/21 07:16:23;;;;;;;1.00;0.93;;;21.20;66.40;;;;;;6163367;23;20386;-73
2021/11/21 07:18:48;;;;;;;0.75;0.75;;;21.20;66.50;;;;;;6188021;23;20040;-73
2021/11/21 07:21:14;;;;;;;4.82;1.10;;;21.20;66.50;;;;;;6214068;23;20055;-73
2021/11/21 07:23:40;;;;;;;1.10;0.70;;;21.20;66.40;;;;;;6187835;23;20047;-73
2021/11/21 07:26:06;;;;;;;1.90;0.90;;;21.20;66.50;;;;;;6188291;23;20009;-73
2021/11/21 07:28:32;;;;;;;1.20;0.88;;;21.20;66.50;;;;;;6214329;23;20051;-73
2021/11/21 07:30:57;;;;;;;1.20;1.10;;;21.20;66.50;;;;;;6188173;23;20004;-73
2021/11/21 07:33:23;;;;;;;0.95;0.75;;;21.20;66.50;;;;;;6188204;23;19997;-73
2021/11/21 07:35:51;;;;;;;0.82;0.80;;;21.20;66.50;;;;;;6213893;23;20008;-73
2021/11/21 07:38:16;;;;;;;0.70;0.70;;;21.20;66.50;;;;;;6214567;23;20001;-73
2021/11/21 07:40:42;;;;;;;0.93;0.80;;;21.10;66.60;;;;;;6214369;23;20373;-73
2021/11/21 07:43:07;;;;;;;1.95;1.00;;;21.20;66.50;;;;;;6163432;23;20005;-73
2021/11/21 07:45:33;;;;;;;0.85;0.85;;;21.10;66.50;;;;;;6187831;23;20437;-73
2021/11/21 07:47:59;;;;;;;2.42;0.80;;;21.20;66.50;;;;;;6214405;23;19996;-73
2021/11/21 07:50:24;;;;;;;1.02;0.88;;;21.20;66.50;;;;;;6214082;23;20004;-73
2021/11/21 07:52:50;;;;;;;0.68;0.68;;;21.10;66.50;;;;;;6187764;23;20012;-73
2021/11/21 07:55:16;;;;;;;1.98;0.80;;;21.20;66.60;;;;;;6214615;23;20436;-73
2021/11/21 07:57:41;;;;;;;1.27;0.70;;;21.20;66.60;;;;;;6162955;23;20000;-73
2021/11/21 08:00:10;;;;;;;2.50;0.93;;;21.10;66.50;;;;;;6163192;23;20001;-73
2021/11/21 08:02:36;;;;;;;1.10;0.57;;;21.20;66.50;;;;;;6163314;23;20040;-73
2021/11/21 08:05:03;;;;;;;3.17;0.82;;;21.20;66.60;;;;;;6187596;23;19997;-73
2021/11/21 08:07:28;;;;;;;1.88;0.85;;;21.10;66.50;;;;;;6214506;23;20340;-73
2021/11/21 08:09:54;;;;;;;0.85;0.60;;;21.20;66.60;;;;;;6187499;23;20009;-73
2021/11/21 08:12:19;;;;;;;0.50;0.50;;;21.10;66.60;;;;;;6214446;23;20005;-73
2021/11/21 08:14:45;;;;;;;1.13;0.90;;;21.10;66.60;;;;;;6163010;23;20005;-73
2021/11/21 08:17:11;;;;;;;0.75;0.70;;;21.20;66.60;;;;;;6187813;23;20015;-73
2021/11/21 08:19:37;;;;;;;1.00;0.90;;;21.20;66.70;;;;;;6187269;23;20007;-73
2021/11/21 08:22:03;;;;;;;0.93;0.70;;;21.10;66.60;;;;;;6214147;23;20450;-73
2021/11/21 08:24:29;;;;;;;2.28;0.68;;;21.20;66.70;;;;;;6214191;23;20028;-73
2021/11/21 08:26:54;;;;;;;1.42;0.82;;;21.20;66.70;;;;;;6213905;23;20352;-72
2021/11/21 08:29:20;;;;;;;2.38;0.90;;;21.20;66.70;;;;;;6187823;23;19997;-73
2021/11/21 08:31:47;;;;;;;1.85;0.80;;;21.20;66.70;;;;;;6188249;23;20000;-73
2021/11/21 08:34:13;;;;;;;1.65;0.80;;;21.10;66.70;;;;;;6215853;23;20494;-73
2021/11/21 08:36:38;;;;;;;1.00;0.65;;;21.10;66.60;;;;;;6189880;23;20004;-73
2021/11/21 08:39:04;;;;;;;1.42;0.70;;;21.20;66.70;;;;;;6216051;23;20000;-73
2021/11/21 08:41:30;;;;;;;1.77;0.70;;;21.10;66.70;;;;;;6216082;23;20004;-73
2021/11/21 08:43:56;;;;;;;0.82;0.70;;;21.10;66.70;;;;;;6216009;23;20319;-73
2021/11/21 08:46:22;;;;;;;0.77;0.68;;;21.20;66.80;;;;;;6216323;23;20012;-73
2021/11/21 08:48:48;;;;;;;1.30;0.70;;;21.20;66.80;;;;;;6189812;23;20008;-73
2021/11/21 08:51:13;;;;;;;0.68;0.63;;;21.10;66.70;;;;;;6216685;23;20009;-73
2021/11/21 08:53:44;;;;;;;1.15;0.90;;;21.20;66.80;;;;;;6189912;23;20352;-73
2021/11/21 08:56:10;;;;;;;1.25;0.70;;;21.20;66.80;;;;;;6191207;23;20054;-73
2021/11/21 08:58:36;;;;;;;1.02;0.70;;;21.10;66.70;;;;;;6216795;23;20459;-73
2021/11/21 09:01:02;;;;;;;1.50;0.60;;;21.20;66.80;;;;;;6189717;23;20000;-73
2021/11/21 09:03:29;;;;;;;1.08;0.90;;;21.20;66.80;;;;;;6216314;23;20031;-73
2021/11/21 09:05:55;;;;;;;1.30;0.80;;;21.20;66.80;;;;;;6216287;23;20001;-72
2021/11/21 09:08:21;;;;;;;0.73;0.65;;;21.10;66.90;;;;;;6216553;23;20024;-72
2021/11/21 09:10:47;;;;;;;1.23;0.70;;;21.10;66.80;;;;;;6216477;23;20091;-76
2021/11/21 09:13:13;;;;;;;0.80;0.60;;;21.10;66.70;;;;;;6188458;23;20000;-73
2021/11/21 09:15:39;;;;;;;3.22;0.80;;;21.10;66.80;;;;;;6216040;23;20028;-73
2021/11/21 09:18:04;;;;;;;1.00;0.65;;;21.20;67.00;;;;;;6189276;23;20001;-73
2021/11/21 09:20:30;;;;;;;2.35;0.77;;;21.10;66.90;;;;;;6215887;23;20414;-73
2021/11/21 09:22:56;;;;;;;4.20;1.00;;;21.20;67.00;;;;;;6215873;23;20005;-73
2021/11/21 09:25:21;;;;;;;2.53;0.50;;;21.20;67.10;;;;;;6164915;23;20119;-73
2021/11/21 09:27:47;;;;;;;2.33;0.70;;;21.20;68.10;;;;;;6189511;23;20322;-73
2021/11/21 09:30:13;;;;;;;1.80;0.63;;;21.20;67.00;;;;;;6189200;23;20144;-73
2021/11/21 09:32:42;;;;;;;1.02;0.80;;;21.30;67.00;;;;;;6215790;23;20075;-73
2021/11/21 09:35:08;;;;;;;1.63;0.90;;;21.30;67.00;;;;;;6165727;23;20359;-73
2021/11/21 09:37:34;;;;;;;0.93;0.43;;;21.30;66.80;;;;;;6216345;23;20005;-73
2021/11/21 09:39:59;;;;;;;1.85;0.60;;;21.30;66.60;;;;;;6214790;23;20008;-73
2021/11/21 09:42:25;;;;;;;3.25;0.63;;;21.20;66.50;;;;;;6187933;23;20005;-73
2021/11/21 09:44:51;;;;;;;0.70;0.47;;;21.20;66.50;;;;;;6188012;23;20005;-73
2021/11/21 09:47:16;;;;;;;1.13;0.65;;;21.20;66.50;;;;;;6187718;23;20362;-73
2021/11/21 09:49:42;;;;;;;0.75;0.47;;;21.20;66.50;;;;;;6187749;23;20001;-74
2021/11/21 09:52:08;;;;;;;2.05;0.45;;;21.20;66.50;;;;;;6214248;23;20375;-74
2021/11/21 09:54:34;;;;;;;0.63;0.40;;;21.20;66.50;;;;;;6163201;23;20028;-73
2021/11/21 09:56:59;;;;;;;0.73;0.45;;;21.10;66.30;;;;;;6187792;23;20008;-73
2021/11/21 09:59:48;;;;;;;0.68;0.50;;;21.10;66.30;;;;;;6214133;23;20008;-73
2021/11/21 10:02:18;;;;;;;0.70;0.60;;;21.20;66.10;;;;;;6187365;23;20028;-73
2021/11/21 10:04:44;;;;;;;1.55;0.60;;;21.10;66.20;;;;;;6187572;23;19997;-72
2021/11/21 10:07:27;;;;;;;1.13;0.50;;;21.10;66.20;;;;;;6213596;23;20028;-72
2021/11/21 10:09:53;;;;;;;5.70;0.70;;;21.10;66.00;;;;;;6214140;23;19997;-73
2021/11/21 10:12:19;;;;;;;4.18;1.15;;;21.10;66.20;;;;;;6188796;23;20004;-73
2021/11/21 10:15:03;;;;;;;5.60;1.38;;;21.10;66.20;;;;;;6188012;23;20095;-74
2021/11/21 10:17:30;;;;;;;7.30;1.20;;;21.10;65.90;;;;;;6188007;23;20435;-73
2021/11/21 10:20:05;;;;;;;2.60;1.20;;;21.10;66.20;;;;;;6188657;23;20005;-74
2021/11/21 10:22:46;;;;;;;3.15;1.20;;;21.10;66.00;;;;;;6215144;23;20080;-73
2021/11/21 10:25:12;;;;;;;10.88;1.65;;;21.10;65.90;;;;;;6214148;23;20399;-74
2021/11/21 10:27:41;;;;;;;4.88;1.30;;;21.10;66.00;;;;;;6187710;23;20054;-73
2021/11/21 10:30:08;;;;;;;6.70;1.60;;;21.00;65.90;;;;;;6214651;23;20000;-73
2021/11/21 10:32:34;;;;;;;3.83;1.30;;;21.00;65.90;;;;;;6163281;23;20027;-73
2021/11/21 10:35:05;;;;;;;5.63;1.02;;;21.00;65.80;;;;;;6164248;23;20531;-74
2021/11/21 10:37:35;;;;;;;4.20;1.10;;;21.00;65.80;;;;;;6189042;23;20004;-74
2021/11/21 10:40:03;;;;;;;5.05;1.40;;;21.00;65.80;;;;;;6188811;23;20000;-73
2021/11/21 10:42:29;;;;;;;6.03;1.35;;;21.00;65.80;;;;;;6188912;23;20032;-74
2021/11/21 10:44:55;;;;;;;10.20;2.00;;;21.00;65.80;;;;;;6163683;23;20008;-73
2021/11/21 10:47:21;;;;;;;3.65;1.20;;;21.00;65.70;;;;;;6163719;23;20000;-73
2021/11/21 10:49:51;;;;;;;9.10;1.70;;;21.00;65.70;;;;;;6163581;23;20444;-73
2021/11/21 10:52:21;;;;;;;3.42;1.30;;;21.00;65.70;;;;;;6214789;23;20039;-73
2021/11/21 10:54:50;;;;;;;5.70;1.35;;;21.00;65.70;;;;;;6164514;23;20008;-73
2021/11/21 10:57:41;;;;;;;3.70;1.42;;;21.00;65.70;;;;;;6188401;23;20008;-73
2021/11/21 11:00:17;;;;;;;5.40;1.02;;;21.00;65.60;;;;;;6192126;23;20444;-73
2021/11/21 11:02:43;;;;;;;5.07;1.20;;;21.00;65.60;;;;;;6189512;23;20075;-73
2021/11/21 11:05:24;;;;;;;7.38;1.33;;;21.00;66.70;;;;;;6188290;23;20001;-74
2021/11/21 11:07:52;;;;;;;3.92;1.25;;;21.00;65.40;;;;;;6188461;23;20456;-73
2021/11/21 11:10:32;;;;;;;4.78;1.23;;;21.00;65.60;;;;;;6188359;23;20007;-73
2021/11/21 11:13:03;;;;;;;3.47;1.20;;;21.00;65.50;;;;;;6214451;23;20458;-73
2021/11/21 11:15:30;;;;;;;4.45;1.30;;;20.90;65.50;;;;;;6188417;23;20024;-74
2021/11/21 11:17:56;;;;;;;3.45;1.00;;;20.90;65.50;;;;;;6188440;23;20055;-73
2021/11/21 11:20:22;;;;;;;5.90;1.17;;;20.90;65.50;;;;;;6163319;23;20009;-73
2021/11/21 11:22:48;;;;;;;3.85;1.25;;;20.90;65.40;;;;;;6214773;23;20000;-74
2021/11/21 11:25:19;;;;;;;3.40;1.30;;;20.90;65.40;;;;;;6163289;23;19996;-73
2021/11/21 11:28:07;;;;;;;4.05;1.27;;;21.00;65.40;;;;;;6187727;23;20444;-73
2021/11/21 11:30:34;;;;;;;5.10;1.02;;;20.90;65.30;;;;;;6192068;23;20356;-74
2021/11/21 11:33:21;;;;;;;3.70;0.70;;;20.90;65.40;;;;;;6188379;23;20005;-73
2021/11/21 11:35:48;;;;;;;3.33;1.35;;;21.00;65.20;;;;;;6214670;23;20429;-73
2021/11/21 11:38:28;;;;;;;3.25;1.13;;;20.90;65.40;;;;;;6188182;23;20432;-73
2021/11/21 11:40:58;;;;;;;2.55;0.93;;;21.00;65.30;;;;;;6214417;23;20005;-73
2021/11/21 11:43:29;;;;;;;3.33;1.30;;;20.90;65.30;;;;;;6214138;23;20314;-73
2021/11/21 11:45:59;;;;;;;3.47;1.00;;;20.90;65.30;;;;;;6214458;23;20001;-73
2021/11/21 11:48:34;;;;;;;5.53;1.42;;;20.90;65.30;;;;;;6164010;23;20027;-73
2021/11/21 11:51:01;;;;;;;4.60;1.42;;;20.90;65.20;;;;;;6214495;23;20003;-74
2021/11/21 11:53:36;;;;;;;4.05;1.27;;;20.90;65.20;;;;;;6163739;23;20082;-74
2021/11/21 11:56:18;;;;;;;4.38;1.27;;;20.90;65.10;;;;;;6214122;23;20004;-73
2021/11/21 11:59:11;;;;;;;3.30;1.20;;;20.90;65.20;;;;;;6187935;23;20005;-73
2021/11/21 12:01:39;;;;;;;2.58;1.42;;;20.90;65.00;;;;;;6209576;23;20053;-73
2021/11/21 12:04:12;;;;;;;2.55;1.02;;;20.90;65.30;;;;;;6214446;23;20056;-74
2021/11/21 12:06:48;;;;;;;2.22;1.00;;;20.90;65.20;;;;;;6189668;23;19996;-73
2021/11/21 12:09:19;;;;;;;2.15;1.20;;;20.90;65.20;;;;;;6190660;23;20001;-73
2021/11/21 12:11:55;;;;;;;2.22;0.98;;;20.90;65.10;;;;;;6216117;23;20035;-73
2021/11/21 12:14:46;;;;;;;2.78;0.90;;;20.90;65.10;;;;;;6216314;23;20005;-73
2021/11/21 12:17:16;;;;;;;1.60;0.85;;;20.90;66.10;;;;;;6189572;23;20004;-74
2021/11/21 12:19:45;;;;;;;1.60;0.80;;;20.90;65.10;;;;;;6190052;23;20012;-73
2021/11/21 12:22:40;;;;;;;2.58;1.00;;;20.90;65.10;;;;;;6216181;23;20480;-73
2021/11/21 12:25:09;;;;;;;1.35;0.75;;;20.90;64.80;;;;;;6190203;23;20001;-74
2021/11/21 12:27:41;;;;;;;2.70;0.80;;;20.90;65.10;;;;;;6216279;23;20012;-73
2021/11/21 12:30:10;;;;;;;2.00;1.02;;;20.90;65.20;;;;;;6190156;23;19997;-73
2021/11/21 12:32:53;;;;;;;3.72;1.05;;;20.90;65.00;;;;;;6216401;23;20001;-73
2021/11/21 12:35:34;;;;;;;;;;;20.90;65.00;;;;;;6216737;23;20440;-73
2021/11/21 12:38:03;;;;;;;1.23;0.73;;;20.90;64.90;;;;;;6216343;23;19903;-73
2021/11/21 12:40:34;;;;;;;1.83;0.90;;;20.80;65.20;;;;;;6215792;23;20030;-74
2021/11/21 12:43:09;;;;;;;2.47;0.57;;;20.80;65.10;;;;;;6189962;23;20470;-73
2021/11/21 12:45:42;;;;;;;2.33;0.70;;;20.90;65.10;;;;;;6165695;23;20004;-74
2021/11/21 12:48:09;;;;;;;0.80;0.75;;;20.90;65.00;;;;;;6189953;23;20000;-73